Time;durP1;ratioP1;P1;durP2;ratioP2;P2;SDS_P1;SDS_P2;PMS_P1;PMS_P2;Temp;Humidity;BMP_temperature;BMP_pressure;BME280_temperature;BME280_humidity;BME280_pressure;Samples;Min_cycle;Max_cycle;Signal;HPM_P1;HPM_P2
2024/01/20 00:01:52;;;;;;;;;;;;;;;-1.60;100.00;102629.25;6273778;22;20384;-76
2024/01/20 00:04:18;;;;;;;;;;;;;;;-1.60;100.00;102624.16;6273690;22;19907;-76
2024/01/20 00:06:43;;;;;;;;;;;;;;;-1.58;100.00;102635.41;6273559;22;19934;-76
2024/01/20 00:09:08;;;;;;;;;;;;;;;-1.57;100.00;102634.69;6273389;22;19929;-76
2024/01/20 00:11:33;;;;;;;;;;;;;;;-1.58;100.00;102636.34;6273670;22;20241;-76
2024/01/20 00:13:59;;;;;;;;;;;;;;;-1.57;100.00;102633.03;6246799;22;19899;-76
2024/01/20 00:16:24;;;;;;;;;;;;;;;-1.54;100.00;102635.00;6246236;22;19914;-76
2024/01/20 00:18:49;;;;;;;;;;;;;;;-1.55;100.00;102633.22;6273352;22;19907;-76
2024/01/20 00:21:14;;;;;;;;;;;;;;;-1.54;100.00;102641.78;6246643;22;19903;-76
2024/01/20 00:23:40;;;;;;;;;;;;;;;-1.53;100.00;102641.03;6273719;22;20245;-76
2024/01/20 00:26:05;;;;;;;;;;;;;;;-1.53;100.00;102644.47;6273386;22;20238;-76
2024/01/20 00:28:30;;;;;;;;;;;;;;;-1.52;100.00;102646.28;6246109;22;19903;-76
2024/01/20 00:30:55;;;;;;;;;;;;;;;-1.51;100.00;102644.63;6273436;22;19910;-76
2024/01/20 00:33:21;;;;;;;;;;;;;;;-1.51;100.00;102642.97;6246159;22;19903;-76
2024/01/20 00:35:47;;;;;;;;;;;;;;;-1.51;100.00;102636.97;6273598;22;19904;-76
2024/01/20 00:38:12;;;;;;;;;;;;;;;-1.51;100.00;102634.41;6273037;22;20025;-76
2024/01/20 00:40:37;;;;;;;;;;;;;;;-1.50;100.00;102636.22;6273469;22;19910;-76
2024/01/20 00:43:03;;;;;;;;;;;;;;;-1.50;100.00;102631.09;6246093;22;19915;-76
2024/01/20 00:45:28;;;;;;;;;;;;;;;-1.50;100.00;102629.44;6273548;22;19934;-76
2024/01/20 00:47:53;;;;;;;;;;;;;;;-1.49;100.00;102628.72;6273158;22;19993;-76
2024/01/20 00:50:18;;;;;;;;;;;;;;;-1.47;100.00;102628.84;6272925;22;19907;-76
2024/01/20 00:52:44;;;;;;;;;;;;;;;-1.48;100.00;102629.59;6272664;22;19910;-76
2024/01/20 00:55:10;;;;;;;;;;;;;;;-1.48;100.00;102633.03;6274007;22;19974;-76
2024/01/20 00:57:35;;;;;;;;;;;;;;;-1.50;100.00;102626.88;6275455;22;20344;-76
2024/01/20 01:00:00;;;;;;;;;;;;;;;-1.50;100.00;102626.00;6275390;22;19974;-76
2024/01/20 01:02:26;;;;;;;;;;;;;;;-1.51;100.00;102631.84;6275381;22;19907;-76
2024/01/20 01:04:51;;;;;;;;;;;;;;;-1.52;100.00;102630.03;6248389;22;19913;-76
2024/01/20 01:07:17;;;;;;;;;;;;;;;-1.53;100.00;102628.25;6248140;22;19939;-76
2024/01/20 01:09:42;;;;;;;;;;;;;;;-1.55;100.00;102634.84;6275346;22;19907;-76
2024/01/20 01:12:07;;;;;;;;;;;;;;;-1.56;100.00;102633.94;6275204;22;20379;-76
2024/01/20 01:14:33;;;;;;;;;;;;;;;-1.56;100.00;102623.72;6248160;22;19978;-76
2024/01/20 01:16:58;;;;;;;;;;;;;;;-1.56;100.00;102628.84;6275161;22;19905;-76
2024/01/20 01:19:24;;;;;;;;;;;;;;;-1.57;100.00;102633.03;6275012;22;19903;-76
2024/01/20 01:21:50;;;;;;;;;;;;;;;-1.58;100.00;102626.13;6275485;22;19997;-76
2024/01/20 01:24:15;;;;;;;;;;;;;;;-1.57;100.00;102633.03;6275421;22;19906;-76
2024/01/20 01:26:40;;;;;;;;;;;;;;;-1.58;100.00;102633.78;6275141;22;19907;-76
2024/01/20 01:29:06;;;;;;;;;;;;;;;-1.58;100.00;102632.88;6275104;22;19907;-76
2024/01/20 01:31:31;;;;;;;;;;;;;;;-1.58;100.00;102637.97;6247809;22;19906;-76
2024/01/20 01:33:56;;;;;;;;;;;;;;;-1.59;100.00;102639.66;6248081;22;19910;-76
2024/01/20 01:36:21;;;;;;;;;;;;;;;-1.60;100.00;102631.81;6275155;22;19907;-76
2024/01/20 01:38:47;;;;;;;;;;;;;;;-1.60;100.00;102648.06;6274817;22;19903;-76
2024/01/20 01:41:12;;;;;;;;;;;;;;;-1.60;100.00;102648.06;6274767;22;20430;-76
2024/01/20 01:43:37;;;;;;;;;;;;;;;-1.62;100.00;102647.00;6247656;22;19911;-76
2024/01/20 01:46:03;;;;;;;;;;;;;;;-1.62;100.00;102644.44;6248029;22;19975;-76
2024/01/20 01:48:28;;;;;;;;;;;;;;;-1.61;100.00;102641.16;6275132;22;19903;-76
2024/01/20 01:50:55;;;;;;;;;;;;;;;-1.62;100.00;102649.56;6247477;22;19907;-76
2024/01/20 01:53:20;;;;;;;;;;;;;;;-1.61;100.00;102658.13;6274783;22;19903;-76
2024/01/20 01:55:46;;;;;;;;;;;;;;;-1.61;100.00;102661.59;6274694;22;19903;-76
2024/01/20 01:58:11;;;;;;;;;;;;;;;-1.60;100.00;102658.28;6275084;22;19910;-76
2024/01/20 02:00:37;;;;;;;;;;;;;;;-1.60;100.00;102672.72;6274456;22;19907;-76
2024/01/20 02:03:02;;;;;;;;;;;;;;;-1.59;100.00;102669.41;6247465;22;19912;-76
2024/01/20 02:05:27;;;;;;;;;;;;;;;-1.60;100.00;102676.16;6274682;22;19906;-76
2024/01/20 02:07:53;;;;;;;;;;;;;;;-1.59;100.00;102675.44;6274545;22;19903;-76
2024/01/20 02:10:19;;;;;;;;;;;;;;;-1.59;100.00;102680.53;6274489;22;20352;-76
2024/01/20 02:12:45;;;;;;;;;;;;;;;-1.60;100.00;102678.72;6274511;22;19903;-76
2024/01/20 02:15:11;;;;;;;;;;;;;;;-1.58;100.00;102678.88;6274535;22;19915;-76
2024/01/20 02:17:47;;;;;;;;;;;;;;;-1.57;100.00;102673.91;6247305;22;19907;-76
2024/01/20 02:20:12;;;;;;;;;;;;;;;-1.54;100.00;102678.44;6274913;22;19907;-76
2024/01/20 02:22:37;;;;;;;;;;;;;;;-1.52;100.00;102679.53;6247545;22;20219;-76
2024/01/20 02:25:03;;;;;;;;;;;;;;;-1.53;100.00;102684.47;6274829;22;20186;-76
2024/01/20 02:27:28;;;;;;;;;;;;;;;-1.53;100.00;102684.47;6274689;22;19926;-76
2024/01/20 02:29:53;;;;;;;;;;;;;;;-1.54;100.00;102681.00;6274474;22;19983;-76
2024/01/20 02:32:18;;;;;;;;;;;;;;;-1.54;100.00;102685.22;6274562;22;19943;-76
2024/01/20 02:34:44;;;;;;;;;;;;;;;-1.55;100.00;102685.97;6247588;22;19946;-76
2024/01/20 02:37:09;;;;;;;;;;;;;;;-1.55;100.00;102685.97;6247621;22;19910;-76
2024/01/20 02:39:34;;;;;;;;;;;;;;;-1.55;100.00;102688.50;6274794;22;19902;-76
2024/01/20 02:41:59;;;;;;;;;;;;;;;-1.55;100.00;102688.50;6274374;22;19937;-76
2024/01/20 02:44:25;;;;;;;;;;;;;;;-1.56;100.00;102682.50;6274506;22;20332;-76
2024/01/20 02:46:52;;;;;;;;;;;;;;;-1.57;100.00;102684.16;6247604;22;19974;-76
2024/01/20 02:49:17;;;;;;;;;;;;;;;-1.56;100.00;102672.28;6274162;22;19907;-76
2024/01/20 02:51:42;;;;;;;;;;;;;;;-1.57;100.00;102680.69;6274452;22;19942;-76
2024/01/20 02:54:07;;;;;;;;;;;;;;;-1.59;100.00;102672.88;6273803;22;19935;-76
2024/01/20 02:56:33;;;;;;;;;;;;;;;-1.57;100.00;102670.47;6274169;22;19903;-77
2024/01/20 02:58:58;;;;;;;;;;;;;;;-1.57;100.00;102667.91;6274098;22;19909;-76
2024/01/20 03:01:23;;;;;;;;;;;;;;;-1.58;100.00;102672.13;6274214;22;19903;-76
2024/01/20 03:03:48;;;;;;;;;;;;;;;-1.58;100.00;102682.34;6247032;22;19907;-76
2024/01/20 03:06:14;;;;;;;;;;;;;;;-1.58;100.00;102689.09;6274200;22;20331;-76
2024/01/20 03:08:39;;;;;;;;;;;;;;;-1.58;100.00;102689.09;6274184;22;19903;-76
2024/01/20 03:11:04;;;;;;;;;;;;;;;-1.58;100.00;102697.69;6246730;22;20476;-76
2024/01/20 03:13:29;;;;;;;;;;;;;;;-1.58;100.00;102697.69;6273969;22;20273;-76
2024/01/20 03:15:54;;;;;;;;;;;;;;;-1.57;100.00;102709.69;6274140;22;19942;-76
2024/01/20 03:18:20;;;;;;;;;;;;;;;-1.55;100.00;102701.28;6274033;22;20277;-76
2024/01/20 03:20:45;;;;;;;;;;;;;;;-1.54;100.00;102714.22;6274296;22;19977;-76
2024/01/20 03:23:10;;;;;;;;;;;;;;;-1.54;100.00;102706.56;6274285;22;20383;-76
2024/01/20 03:25:36;;;;;;;;;;;;;;;-1.53;100.00;102698.16;6246390;22;19903;-76
2024/01/20 03:28:01;;;;;;;;;;;;;;;-1.51;100.00;102708.53;6247103;22;19903;-76
2024/01/20 03:30:26;;;;;;;;;;;;;;;-1.51;100.00;102708.53;6273823;22;19906;-76
2024/01/20 03:32:51;;;;;;;;;;;;;;;-1.52;100.00;102702.53;6274343;22;20313;-76
2024/01/20 03:35:17;;;;;;;;;;;;;;;-1.51;100.00;102695.75;6273807;22;19954;-76
2024/01/20 03:37:42;;;;;;;;;;;;;;;-1.51;100.00;102698.31;6274089;22;19914;-76
2024/01/20 03:40:08;;;;;;;;;;;;;;;-1.51;100.00;102700.88;6274045;22;19899;-76
2024/01/20 03:42:33;;;;;;;;;;;;;;;-1.51;100.00;102703.44;6273791;22;20389;-76
2024/01/20 03:44:58;;;;;;;;;;;;;;;-1.51;100.00;102700.88;6273836;22;20369;-76
2024/01/20 03:47:23;;;;;;;;;;;;;;;-1.51;100.00;102698.31;6273797;22;19903;-76
2024/01/20 03:49:49;;;;;;;;;;;;;;;-1.51;100.00;102703.44;6246698;22;19941;-77
2024/01/20 03:52:14;;;;;;;;;;;;;;;-1.52;100.00;102705.09;6273669;22;20097;-76
2024/01/20 03:54:39;;;;;;;;;;;;;;;-1.51;100.00;102699.19;6273503;22;19937;-76
2024/01/20 03:57:05;;;;;;;;;;;;;;;-1.52;100.00;102692.31;6273374;22;19907;-76
2024/01/20 03:59:30;;;;;;;;;;;;;;;-1.51;100.00;102700.88;6273638;22;19952;-76
2024/01/20 04:01:55;;;;;;;;;;;;;;;-1.52;100.00;102689.75;6273590;22;20234;-77
2024/01/20 04:04:20;;;;;;;;;;;;;;;-1.52;100.00;102696.50;6273953;22;19907;-76
2024/01/20 04:06:46;;;;;;;;;;;;;;;-1.51;100.00;102700.88;6273690;22;19909;-76
2024/01/20 04:09:11;;;;;;;;;;;;;;;-1.52;100.00;102699.06;6246650;22;19914;-76
2024/01/20 04:11:37;;;;;;;;;;;;;;;-1.53;100.00;102705.81;6246401;22;19903;-76
2024/01/20 04:14:02;;;;;;;;;;;;;;;-1.53;100.00;102697.25;6273690;22;19975;-76
2024/01/20 04:16:27;;;;;;;;;;;;;;;-1.53;100.00;102699.81;6273338;22;19949;-76
2024/01/20 04:18:52;;;;;;;;;;;;;;;-1.53;100.00;102704.94;6273463;22;19903;-76
2024/01/20 04:21:18;;;;;;;;;;;;;;;-1.53;100.00;102707.50;6245769;22;19904;-76
2024/01/20 04:23:43;;;;;;;;;;;;;;;-1.54;100.00;102715.91;6273761;22;19943;-76
2024/01/20 04:26:08;;;;;;;;;;;;;;;-1.55;100.00;102711.53;6273856;22;19903;-76
2024/01/20 04:28:33;;;;;;;;;;;;;;;-1.55;100.00;102716.63;6273100;22;19910;-76
2024/01/20 04:30:58;;;;;;;;;;;;;;;-1.57;100.00;102719.94;6273415;22;20353;-76
2024/01/20 04:33:24;;;;;;;;;;;;;;;-1.57;100.00;102724.16;6273211;22;20305;-76
2024/01/20 04:35:49;;;;;;;;;;;;;;;-1.57;100.00;102735.25;6273501;22;19974;-76
2024/01/20 04:38:14;;;;;;;;;;;;;;;-1.57;100.00;102729.25;6245946;22;20048;-76
2024/01/20 04:40:39;;;;;;;;;;;;;;;-1.57;100.00;102732.72;6273881;22;20250;-76
2024/01/20 04:43:05;;;;;;;;;;;;;;;-1.58;100.00;102733.47;6273323;22;20101;-76
2024/01/20 04:45:30;;;;;;;;;;;;;;;-1.57;100.00;102734.38;6246457;22;19907;-76
2024/01/20 04:47:56;;;;;;;;;;;;;;;-1.57;100.00;102736.94;6273606;22;20306;-76
2024/01/20 04:50:21;;;;;;;;;;;;;;;-1.55;100.00;102734.53;6273296;22;19907;-76
2024/01/20 04:52:46;;;;;;;;;;;;;;;-1.54;100.00;102746.56;6273328;22;19926;-76
2024/01/20 04:55:12;;;;;;;;;;;;;;;-1.54;100.00;102750.03;6273399;22;19952;-76
2024/01/20 04:57:37;;;;;;;;;;;;;;;-1.54;100.00;102738.91;6273456;22;20022;-76
2024/01/20 05:00:02;;;;;;;;;;;;;;;-1.55;100.00;102737.09;6272791;22;19910;-76
2024/01/20 05:02:28;;;;;;;;;;;;;;;-1.54;100.00;102731.22;6273526;22;19973;-76
2024/01/20 05:04:53;;;;;;;;;;;;;;;-1.54;100.00;102744.00;6245905;22;19910;-76
2024/01/20 05:07:18;;;;;;;;;;;;;;;-1.53;100.00;102743.28;6246137;22;20366;-76
2024/01/20 05:09:43;;;;;;;;;;;;;;;-1.53;100.00;102740.72;6273191;22;19983;-76
2024/01/20 05:12:09;;;;;;;;;;;;;;;-1.55;100.00;102738.00;6273586;22;19903;-76
2024/01/20 05:14:34;;;;;;;;;;;;;;;-1.54;100.00;102738.91;6273580;22;19903;-76
2024/01/20 05:16:59;;;;;;;;;;;;;;;-1.54;100.00;102750.03;6245945;22;19906;-77
2024/01/20 05:19:24;;;;;;;;;;;;;;;-1.54;100.00;102750.03;6273043;22;19907;-76
2024/01/20 05:21:50;;;;;;;;;;;;;;;-1.54;100.00;102752.56;6245542;22;19983;-76
2024/01/20 05:24:15;;;;;;;;;;;;;;;-1.55;100.00;102753.34;6273027;22;20310;-76
2024/01/20 05:26:40;;;;;;;;;;;;;;;-1.54;100.00;102751.69;6273314;22;19907;-76
2024/01/20 05:29:05;;;;;;;;;;;;;;;-1.54;100.00;102752.56;6273273;22;19903;-76
2024/01/20 05:31:31;;;;;;;;;;;;;;;-1.54;100.00;102751.69;6245937;22;19903;-76
2024/01/20 05:33:57;;;;;;;;;;;;;;;-1.55;100.00;102748.22;6245880;22;20321;-76
2024/01/20 05:36:22;;;;;;;;;;;;;;;-1.54;100.00;102760.25;6273203;22;19909;-76
2024/01/20 05:38:47;;;;;;;;;;;;;;;-1.54;100.00;102754.25;6273042;22;20751;-76
2024/01/20 05:41:12;;;;;;;;;;;;;;;-1.55;100.00;102760.09;6273276;22;20281;-76
2024/01/20 05:43:38;;;;;;;;;;;;;;;-1.57;100.00;102760.81;6274917;22;20064;-76
2024/01/20 05:46:06;;;;;;;;;;;;;;;-1.56;100.00;102759.19;6275126;22;19915;-76
2024/01/20 05:48:32;;;;;;;;;;;;;;;-1.54;100.00;102761.91;6274966;22;19903;-76
2024/01/20 05:50:58;;;;;;;;;;;;;;;-1.57;100.00;102758.28;6275220;22;19907;-76
2024/01/20 05:53:23;;;;;;;;;;;;;;;-1.57;100.00;102763.38;6275235;22;19903;-76
2024/01/20 05:55:49;;;;;;;;;;;;;;;-1.57;100.00;102771.06;6274733;22;20000;-76
2024/01/20 05:58:15;;;;;;;;;;;;;;;-1.58;100.00;102771.81;6247709;22;19910;-76
2024/01/20 06:00:40;;;;;;;;;;;;;;;-1.58;100.00;102770.88;6247703;22;19911;-76
2024/01/20 06:03:06;;;;;;;;;;;;;;;-1.59;100.00;102775.13;6247785;22;19907;-76
2024/01/20 06:05:31;;;;;;;;;;;;;;;-1.59;100.00;102774.22;6274794;22;19978;-76
2024/01/20 06:07:56;;;;;;;;;;;;;;;-1.59;100.00;102777.66;6274683;22;19973;-76
2024/01/20 06:10:21;;;;;;;;;;;;;;;-1.60;100.00;102778.41;6275039;22;19907;-76
2024/01/20 06:12:47;;;;;;;;;;;;;;;-1.60;100.00;102780.06;6274743;22;19903;-77
2024/01/20 06:15:12;;;;;;;;;;;;;;;-1.60;100.00;102786.06;6275131;22;19981;-76
2024/01/20 06:17:37;;;;;;;;;;;;;;;-1.59;100.00;102782.78;6274335;22;19942;-76
2024/01/20 06:20:03;;;;;;;;;;;;;;;-1.59;100.00;102784.44;6274555;22;20341;-76
2024/01/20 06:22:29;;;;;;;;;;;;;;;-1.58;100.00;102789.72;6274768;22;20314;-76
2024/01/20 06:24:54;;;;;;;;;;;;;;;-1.58;100.00;102787.16;6274806;22;19913;-76
2024/01/20 06:27:19;;;;;;;;;;;;;;;-1.58;100.00;102784.59;6274183;22;20350;-76
2024/01/20 06:29:45;;;;;;;;;;;;;;;-1.58;100.00;102783.69;6274676;22;19955;-76
2024/01/20 06:32:10;;;;;;;;;;;;;;;-1.59;100.00;102787.00;6274624;22;19903;-76
2024/01/20 06:34:35;;;;;;;;;;;;;;;-1.60;100.00;102785.19;6247412;22;20315;-76
2024/01/20 06:37:00;;;;;;;;;;;;;;;-1.61;100.00;102783.34;6274210;22;19910;-76
2024/01/20 06:39:26;;;;;;;;;;;;;;;-1.62;100.00;102792.69;6274363;22;19907;-76
2024/01/20 06:41:51;;;;;;;;;;;;;;;-1.61;100.00;102798.69;6274521;22;19918;-77
2024/01/20 06:44:16;;;;;;;;;;;;;;;-1.61;100.00;102803.81;6274514;22;19918;-76
2024/01/20 06:46:42;;;;;;;;;;;;;;;-1.62;100.00;102808.03;6274318;22;20029;-76
2024/01/20 06:49:07;;;;;;;;;;;;;;;-1.62;100.00;102813.13;6274508;22;19909;-76
2024/01/20 06:51:32;;;;;;;;;;;;;;;-1.62;100.00;102808.03;6247428;22;19903;-76
2024/01/20 06:53:58;;;;;;;;;;;;;;;-1.62;100.00;102825.03;6246940;22;19961;-76
2024/01/20 06:56:24;;;;;;;;;;;;;;;-1.62;100.00;102832.69;6274238;22;19907;-76
2024/01/20 06:58:49;;;;;;;;;;;;;;;-1.62;100.00;102827.59;6274432;22;19982;-76
2024/01/20 07:01:16;;;;;;;;;;;;;;;-1.62;100.00;102822.47;6274181;22;19906;-76
2024/01/20 07:03:41;;;;;;;;;;;;;;;-1.62;100.00;102823.38;6273995;22;19961;-76
2024/01/20 07:06:07;;;;;;;;;;;;;;;-1.61;100.00;102825.19;6274626;22;19911;-76
2024/01/20 07:08:32;;;;;;;;;;;;;;;-1.61;100.00;102829.38;6274273;22;19914;-76
2024/01/20 07:10:57;;;;;;;;;;;;;;;-1.63;100.00;102826.66;6274122;22;19930;-77
2024/01/20 07:13:23;;;;;;;;;;;;;;;-1.63;100.00;102826.66;6274195;22;19968;-76
2024/01/20 07:15:48;;;;;;;;;;;;;;;-1.65;100.00;102828.16;6274268;22;19910;-76
2024/01/20 07:18:13;;;;;;;;;;;;;;;-1.65;100.00;102823.03;6273980;22;19906;-76
2024/01/20 07:20:38;;;;;;;;;;;;;;;-1.65;100.00;102828.16;6274231;22;19903;-76
2024/01/20 07:23:04;;;;;;;;;;;;;;;-1.65;100.00;102825.59;6274210;22;19911;-76
2024/01/20 07:25:29;;;;;;;;;;;;;;;-1.66;100.00;102820.34;6274021;22;19911;-77
2024/01/20 07:27:54;;;;;;;;;;;;;;;-1.68;100.00;102826.91;6274318;22;19915;-76
2024/01/20 07:30:20;;;;;;;;;;;;;;;-1.67;100.00;102816.84;6273731;22;20310;-76
2024/01/20 07:32:45;;;;;;;;;;;;;;;-1.66;100.00;102822.88;6246947;22;19907;-76
2024/01/20 07:35:10;;;;;;;;;;;;;;;-1.66;100.00;102826.34;6273487;22;19942;-76
2024/01/20 07:37:38;;;;;;;;;;;;;;;-1.64;100.00;102829.06;6246921;22;19953;-76
2024/01/20 07:40:04;;;;;;;;;;;;;;;-1.63;100.00;102833.44;6273159;22;19903;-76
2024/01/20 07:42:32;;;;;;;;;;;;;;;-1.63;100.00;102831.75;6273843;22;19921;-76
2024/01/20 07:44:57;;;;;;;;;;;;;;;-1.63;100.00;102828.31;6273618;22;20290;-76
2024/01/20 07:47:22;;;;;;;;;;;;;;;-1.63;100.00;102842.00;6246285;22;19934;-76
2024/01/20 07:49:48;;;;;;;;;;;;;;;-1.64;100.00;102837.63;6273472;22;19945;-76
2024/01/20 07:52:13;;;;;;;;;;;;;;;-1.65;100.00;102833.28;6273878;22;20219;-76
2024/01/20 07:54:38;;;;;;;;;;;;;;;-1.65;100.00;102840.94;6273590;22;20357;-76
2024/01/20 07:57:03;;;;;;;;;;;;;;;-1.63;100.00;102848.75;6273511;22;19903;-76
2024/01/20 07:59:29;;;;;;;;;;;;;;;-1.64;100.00;102852.94;6273206;22;20249;-76
2024/01/20 08:01:54;;;;;;;;;;;;;;;-1.63;100.00;102851.31;6273294;22;19906;-76
2024/01/20 08:04:19;;;;;;;;;;;;;;;-1.64;100.00;102845.28;6272684;22;19994;-76
2024/01/20 08:06:45;;;;;;;;;;;;;;;-1.65;100.00;102843.50;6273981;22;19952;-77
2024/01/20 08:09:10;;;;;;;;;;;;;;;-1.66;100.00;102851.00;6273732;22;19907;-76
2024/01/20 08:11:35;;;;;;;;;;;;;;;-1.67;100.00;102850.06;6272791;22;20427;-76
2024/01/20 08:14:01;;;;;;;;;;;;;;;-1.68;100.00;102855.94;6272525;22;19935;-76
2024/01/20 08:16:28;;;;;;;;;;;;;;;-1.67;100.00;102852.63;6273177;22;20302;-76
2024/01/20 08:18:55;;;;;;;;;;;;;;;-1.68;100.00;102858.50;6273671;22;19942;-76
2024/01/20 08:21:20;;;;;;;;;;;;;;;-1.68;100.00;102858.50;6273474;22;19911;-76
2024/01/20 08:23:45;;;;;;;;;;;;;;;-1.67;100.00;102859.41;6273228;22;19933;-76
2024/01/20 08:26:11;;;;;;;;;;;;;;;-1.68;100.00;102866.19;6273113;22;20315;-76
2024/01/20 08:28:36;;;;;;;;;;;;;;;-1.68;100.00;102871.28;6273591;22;19903;-76
2024/01/20 08:31:01;;;;;;;;;;;;;;;-1.67;100.00;102870.53;6245758;22;19961;-76
2024/01/20 08:33:26;;;;;;;;;;;;;;;-1.67;100.00;102870.53;6273416;22;19907;-76
2024/01/20 08:35:52;;;;;;;;;;;;;;;-1.65;100.00;102871.59;6246230;22;19903;-76
2024/01/20 08:38:17;;;;;;;;;;;;;;;-1.64;100.00;102875.06;6273410;22;19978;-76
2024/01/20 08:40:42;;;;;;;;;;;;;;;-1.62;100.00;102874.47;6273110;22;20227;-76
2024/01/20 08:43:07;;;;;;;;;;;;;;;-1.61;100.00;102877.94;6273243;22;19986;-76
2024/01/20 08:45:33;;;;;;;;;;;;;;;-1.60;100.00;102874.63;6273301;22;19908;-76
2024/01/20 08:47:58;;;;;;;;;;;;;;;-1.58;100.00;102889.41;6273112;22;20231;-76
2024/01/20 08:50:23;;;;;;;;;;;;;;;-1.55;100.00;102886.28;6272896;22;19910;-76
2024/01/20 08:52:48;;;;;;;;;;;;;;;-1.52;100.00;102883.09;6273393;22;19941;-76
2024/01/20 08:55:13;;;;;;;;;;;;;;;-1.50;100.00;102881.63;6246216;22;20314;-76
2024/01/20 08:57:39;;;;;;;;;;;;;;;-1.49;100.00;102875.75;6273330;22;19903;-76
2024/01/20 09:00:05;;;;;;;;;;;;;;;-1.45;100.00;102883.00;6272807;22;19910;-76
2024/01/20 09:02:31;;;;;;;;;;;;;;;-1.44;100.00;102884.81;6273199;22;19903;-76
2024/01/20 09:04:56;;;;;;;;;;;;;;;-1.42;100.00;102884.25;6273593;22;20225;-77
2024/01/20 09:07:21;;;;;;;;;;;;;;;-1.42;100.00;102889.38;6272994;22;19942;-76
2024/01/20 09:09:47;;;;;;;;;;;;;;;-1.41;100.00;102890.25;6273159;22;19903;-76
2024/01/20 09:12:12;;;;;;;;;;;;;;;-1.40;100.00;102892.09;6272720;22;19983;-76
2024/01/20 09:14:37;;;;;;;;;;;;;;;-1.39;100.00;102899.03;6272472;22;19910;-72
2024/01/20 09:17:03;;;;;;;;;;;;;;;-1.38;100.00;102899.91;6274987;22;19903;-71
2024/01/20 09:19:28;;;;;;;;;;;;;;;-1.38;100.00;102892.25;6275673;22;19984;-71
2024/01/20 09:21:53;;;;;;;;;;;;;;;-1.40;100.00;102898.09;6247983;22;20333;-72
2024/01/20 09:24:19;;;;;;;;;;;;;;;-1.39;100.00;102896.47;6275105;22;20314;-71
2024/01/20 09:26:44;;;;;;;;;;;;;;;-1.38;100.00;102905.91;6276168;22;20314;-72
2024/01/20 09:29:09;;;;;;;;;;;;;;;-1.38;100.00;102900.81;6248158;22;20360;-71
2024/01/20 09:31:34;;;;;;;;;;;;;;;-1.38;100.00;102899.91;6275161;22;19906;-71
2024/01/20 09:33:59;;;;;;;;;;;;;;;-1.37;100.00;102907.75;6275240;22;19907;-72
2024/01/20 09:36:25;;;;;;;;;;;;;;;-1.38;100.00;102905.03;6275461;22;19904;-72
2024/01/20 09:38:50;;;;;;;;;;;;;;;-1.38;100.00;102899.91;6275492;22;20230;-72
2024/01/20 09:41:16;;;;;;;;;;;;;;;-1.38;100.00;102905.91;6247919;22;19907;-72
2024/01/20 09:43:42;;;;;;;;;;;;;;;-1.36;100.00;102906.06;6274946;22;19938;-71
2024/01/20 09:46:07;;;;;;;;;;;;;;;-1.35;100.00;102911.34;6275253;22;19911;-71
2024/01/20 09:48:33;;;;;;;;;;;;;;;-1.35;100.00;102908.78;6248118;22;19903;-71
2024/01/20 09:50:58;;;;;;;;;;;;;;;-1.34;100.00;102915.72;6275407;22;20231;-71
2024/01/20 09:53:24;;;;;;;;;;;;;;;-1.33;100.00;102922.66;6247893;22;19903;-72
2024/01/20 09:55:49;;;;;;;;;;;;;;;-1.30;100.00;102919.53;6275223;22;19900;-72
2024/01/20 09:58:16;;;;;;;;;;;;;;;-1.29;100.00;102918.75;6275246;22;19918;-72
2024/01/20 10:00:41;;;;;;;;;;;;;;;-1.30;100.00;102930.66;6275210;22;19903;-72
2024/01/20 10:03:08;;;;;;;;;;;;;;;-1.30;100.00;102925.53;6247635;22;19926;-72
2024/01/20 10:05:34;;;;;;;;;;;;;;;-1.29;100.00;102937.59;6275146;22;19907;-71
2024/01/20 10:07:59;;;;;;;;;;;;;;;-1.27;100.00;102919.84;6275353;22;19960;-72
2024/01/20 10:10:24;;;;;;;;;;;;;;;-1.26;100.00;102921.63;6275061;22;19964;-72
2024/01/20 10:12:50;;;;;;;;;;;;;;;-1.24;100.00;102925.28;6275632;22;20328;-72
2024/01/20 10:15:19;;;;;;;;;;;;;;;-1.20;100.00;102929.06;6274763;22;20313;-72
2024/01/20 10:17:44;;;;;;;;;;;;;;;-1.16;100.00;102929.56;6247833;22;19953;-72
2024/01/20 10:20:17;;;;;;;;;;;;;;;-1.14;100.00;102929.72;6275034;22;19907;-71
2024/01/20 10:22:42;;;;;;;;;;;;;;;-1.12;100.00;102930.78;6274893;22;19910;-71
2024/01/20 10:25:07;;;;;;;;;;;;;;;-1.11;100.00;102935.16;6274532;22;20238;-71
2024/01/20 10:27:33;;;;;;;;;;;;;;;-1.09;100.00;102925.97;6274373;22;19903;-71
2024/01/20 10:29:58;;;;;;;;;;;;;;;-1.05;100.00;102935.78;6274919;22;20158;-71
2024/01/20 10:32:24;;;;;;;;;;;;;;;-1.03;100.00;102930.81;6274571;22;20338;-72
2024/01/20 10:34:49;;;;;;;;;;;;;;;-1.02;100.00;102930.97;6247253;22;20314;-72
2024/01/20 10:37:14;;;;;;;;;;;;;;;-1.00;100.00;102921.81;6274678;22;19903;-72
2024/01/20 10:39:41;;;;;;;;;;;;;;;-0.97;100.00;102922.16;6274798;22;19907;-73
2024/01/20 10:42:08;;;;;;;;;;;;;;;-0.93;100.00;102916.59;6247534;22;20289;-72
2024/01/20 10:44:36;;;;;;;;;;;;;;;-0.88;100.00;102909.41;6274912;22;19930;-73
2024/01/20 10:47:04;;;;;;;;;;;;;;;-0.84;100.00;102915.72;6247603;22;20280;-73
2024/01/20 10:49:31;;;;;;;;;;;;;;;-0.85;100.00;102908.78;6274743;22;19907;-72
2024/01/20 10:51:56;;;;;;;;;;;;;;;-0.85;100.00;102903.66;6275357;22;19907;-72
2024/01/20 10:54:22;;;;;;;;;;;;;;;-0.85;100.00;102912.25;6247228;22;20310;-73
2024/01/20 10:56:47;;;;;;;;;;;;;;;-0.84;100.00;102919.22;6274587;22;20372;-73
2024/01/20 10:59:14;;;;;;;;;;;;;;;-0.83;100.00;102917.53;6274642;22;19903;-73
2024/01/20 11:01:41;;;;;;;;;;;;;;;-0.82;100.00;102917.69;6274718;22;19907;-73
2024/01/20 11:04:07;;;;;;;;;;;;;;;-0.83;100.00;102927.78;6247309;22;19911;-74
2024/01/20 11:06:32;;;;;;;;;;;;;;;-0.84;100.00;102915.72;6274390;22;19903;-73
2024/01/20 11:08:59;;;;;;;;;;;;;;;-0.83;100.00;102918.44;6274708;22;19907;-73
2024/01/20 11:11:28;;;;;;;;;;;;;;;-0.79;100.00;102917.13;6274570;22;19903;-74
2024/01/20 11:13:57;;;;;;;;;;;;;;;-0.73;100.00;102920.28;6247535;22;19974;-73
2024/01/20 11:16:22;;;;;;;;;;;;;;;-0.66;100.00;102915.06;6246781;22;19914;-80
2024/01/20 11:18:48;;;;;;;;;;;;;;;-0.61;100.00;102907.84;6273480;22;19903;-80
2024/01/20 11:21:14;;;;;;;;;;;;;;;-0.57;100.00;102912.53;6274055;22;19926;-80
2024/01/20 11:23:39;;;;;;;;;;;;;;;-0.54;100.00;102903.53;6246860;22;19918;-80
2024/01/20 11:26:11;;;;;;;;;;;;;;;-0.54;100.00;102906.09;6274146;22;19903;-81
2024/01/20 11:28:36;;;;;;;;;;;;;;;-0.56;100.00;102902.44;6274440;22;19930;-81
2024/01/20 11:31:03;;;;;;;;;;;;;;;-0.57;100.00;102905.75;6246702;22;19907;-81
2024/01/20 11:33:29;;;;;;;;;;;;;;;-0.55;100.00;102893.09;6273506;22;19986;-81
2024/01/20 11:35:54;;;;;;;;;;;;;;;-0.50;100.00;102897.03;6246496;22;19903;-81
2024/01/20 11:38:20;;;;;;;;;;;;;;;-0.45;100.00;102893.31;6246526;22;19913;-81
2024/01/20 11:40:59;;;;;;;;;;;;;;;-0.38;100.00;102884.56;6274246;22;19943;-81
2024/01/20 11:43:24;;;;;;;;;;;;;;;-0.32;100.00;102886.84;6246412;22;19915;-82
2024/01/20 11:45:49;;;;;;;;;;;;;;;-0.34;100.00;102888.34;6273816;22;20374;-81
2024/01/20 11:48:17;;;;;;;;;;;;;;;-0.37;100.00;102876.13;6273675;22;19903;-81
2024/01/20 11:50:42;;;;;;;;;;;;;;;-0.37;100.00;102876.13;6246447;22;19961;-81
2024/01/20 11:53:07;;;;;;;;;;;;;;;-0.37;100.00;102874.47;6246644;22;19903;-82
2024/01/20 11:55:33;;;;;;;;;;;;;;;-0.38;100.00;102874.31;6273238;22;19911;-81
2024/01/20 11:57:59;;;;;;;;;;;;;;;-0.42;100.00;102875.69;6246281;22;20259;-82
2024/01/20 12:00:24;;;;;;;;;;;;;;;-0.44;100.00;102871.16;6246847;22;19903;-82
2024/01/20 12:02:51;;;;;;;;;;;;;;;-0.44;100.00;102882.28;6274001;22;19914;-82
2024/01/20 12:05:16;;;;;;;;;;;;;;;-0.45;100.00;102877.00;6246515;22;19982;-82
2024/01/20 12:07:41;;;;;;;;;;;;;;;-0.45;100.00;102879.56;6273692;22;19939;-83
2024/01/20 12:10:07;;;;;;;;;;;;;;;-0.43;100.00;102872.97;6273553;22;19911;-83
2024/01/20 12:12:32;;;;;;;;;;;;;;;-0.42;100.00;102869.63;6273639;22;20001;-83
2024/01/20 12:14:57;;;;;;;;;;;;;;;-0.39;100.00;102868.31;6246248;22;20333;-83
2024/01/20 12:17:24;;;;;;;;;;;;;;;-0.36;100.00;102866.03;6245456;22;19907;-83
2024/01/20 12:19:49;;;;;;;;;;;;;;;-0.30;100.00;102870.88;6245614;22;19981;-83